sensor_id;sensor_type;location;lat;lon;timestamp;P1;durP1;ratioP1;P2;durP2;ratioP2
26181;SDS011;13927;51.534;11.866;2023-06-19T00:01:17;7.35;;;6.65;;
26181;SDS011;13927;51.534;11.866;2023-06-19T00:03:45;7.20;;;6.50;;
26181;SDS011;13927;51.534;11.866;2023-06-19T00:06:13;8.13;;;7.32;;
26181;SDS011;13927;51.534;11.866;2023-06-19T00:08:43;8.60;;;6.95;;
26181;SDS011;13927;51.534;11.866;2023-06-19T00:11:11;6.88;;;6.28;;
26181;SDS011;13927;51.534;11.866;2023-06-19T00:13:39;7.18;;;6.47;;
26181;SDS011;13927;51.534;11.866;2023-06-19T00:16:06;7.18;;;6.47;;
26181;SDS011;13927;51.534;11.866;2023-06-19T00:18:34;6.90;;;6.30;;
26181;SDS011;13927;51.534;11.866;2023-06-19T00:21:06;6.60;;;5.88;;
26181;SDS011;13927;51.534;11.866;2023-06-19T00:23:33;8.13;;;6.93;;
26181;SDS011;13927;51.534;11.866;2023-06-19T00:26:00;7.70;;;6.82;;
26181;SDS011;13927;51.534;11.866;2023-06-19T00:28:32;7.93;;;7.13;;
26181;SDS011;13927;51.534;11.866;2023-06-19T00:31:04;7.35;;;6.65;;
26181;SDS011;13927;51.534;11.866;2023-06-19T00:33:32;6.93;;;6.32;;
26181;SDS011;13927;51.534;11.866;2023-06-19T00:36:01;7.22;;;6.47;;
26181;SDS011;13927;51.534;11.866;2023-06-19T00:38:38;7.38;;;6.68;;
26181;SDS011;13927;51.534;11.866;2023-06-19T00:41:07;6.32;;;5.80;;
26181;SDS011;13927;51.534;11.866;2023-06-19T00:43:34;7.72;;;7.03;;
26181;SDS011;13927;51.534;11.866;2023-06-19T00:46:01;8.45;;;7.57;;
26181;SDS011;13927;51.534;11.866;2023-06-19T00:48:29;7.45;;;6.75;;
26181;SDS011;13927;51.534;11.866;2023-06-19T00:50:58;8.35;;;7.45;;
26181;SDS011;13927;51.534;11.866;2023-06-19T00:53:25;8.13;;;7.13;;
26181;SDS011;13927;51.534;11.866;2023-06-19T00:55:53;8.43;;;7.53;;
26181;SDS011;13927;51.534;11.866;2023-06-19T00:58:22;6.72;;;6.13;;
26181;SDS011;13927;51.534;11.866;2023-06-19T01:00:59;7.13;;;6.53;;
26181;SDS011;13927;51.534;11.866;2023-06-19T01:03:27;7.82;;;7.03;;
26181;SDS011;13927;51.534;11.866;2023-06-19T01:05:53;7.55;;;6.85;;
26181;SDS011;13927;51.534;11.866;2023-06-19T01:08:29;7.78;;;7.00;;
26181;SDS011;13927;51.534;11.866;2023-06-19T01:11:18;7.78;;;7.07;;
26181;SDS011;13927;51.534;11.866;2023-06-19T01:13:58;8.38;;;7.68;;
26181;SDS011;13927;51.534;11.866;2023-06-19T01:16:37;8.15;;;7.35;;
26181;SDS011;13927;51.534;11.866;2023-06-19T01:19:05;9.85;;;7.32;;
26181;SDS011;13927;51.534;11.866;2023-06-19T01:21:37;8.23;;;7.50;;
26181;SDS011;13927;51.534;11.866;2023-06-19T01:24:04;8.18;;;6.85;;
26181;SDS011;13927;51.534;11.866;2023-06-19T01:26:33;9.20;;;7.70;;
26181;SDS011;13927;51.534;11.866;2023-06-19T01:29:01;7.93;;;7.13;;
26181;SDS011;13927;51.534;11.866;2023-06-19T01:34:28;8.40;;;7.05;;
26181;SDS011;13927;51.534;11.866;2023-06-19T01:36:56;9.57;;;8.57;;
26181;SDS011;13927;51.534;11.866;2023-06-19T01:39:25;8.82;;;8.02;;
26181;SDS011;13927;51.534;11.866;2023-06-19T01:41:52;9.13;;;8.23;;
26181;SDS011;13927;51.534;11.866;2023-06-19T01:44:20;8.30;;;7.50;;
26181;SDS011;13927;51.534;11.866;2023-06-19T01:46:54;7.97;;;7.18;;
26181;SDS011;13927;51.534;11.866;2023-06-19T01:49:22;8.63;;;7.82;;
26181;SDS011;13927;51.534;11.866;2023-06-19T01:51:49;8.25;;;7.43;;
26181;SDS011;13927;51.534;11.866;2023-06-19T01:54:16;9.25;;;7.13;;
26181;SDS011;13927;51.534;11.866;2023-06-19T01:56:43;7.90;;;7.18;;
26181;SDS011;13927;51.534;11.866;2023-06-19T01:59:11;8.23;;;7.43;;
26181;SDS011;13927;51.534;11.866;2023-06-19T02:01:40;8.65;;;7.55;;
26181;SDS011;13927;51.534;11.866;2023-06-19T02:04:10;9.00;;;8.15;;
26181;SDS011;13927;51.534;11.866;2023-06-19T02:06:36;8.13;;;7.32;;
26181;SDS011;13927;51.534;11.866;2023-06-19T02:09:03;7.88;;;7.18;;
26181;SDS011;13927;51.534;11.866;2023-06-19T02:11:34;8.30;;;7.40;;
26181;SDS011;13927;51.534;11.866;2023-06-19T02:14:02;8.70;;;7.82;;
26181;SDS011;13927;51.534;11.866;2023-06-19T02:16:30;9.50;;;8.65;;
26181;SDS011;13927;51.534;11.866;2023-06-19T02:18:58;10.00;;;8.73;;
26181;SDS011;13927;51.534;11.866;2023-06-19T02:21:28;9.52;;;8.50;;
26181;SDS011;13927;51.534;11.866;2023-06-19T02:23:54;9.70;;;8.80;;
26181;SDS011;13927;51.534;11.866;2023-06-19T02:26:21;10.15;;;9.15;;
26181;SDS011;13927;51.534;11.866;2023-06-19T02:28:49;10.23;;;8.88;;
26181;SDS011;13927;51.534;11.866;2023-06-19T02:31:16;9.25;;;8.35;;
26181;SDS011;13927;51.534;11.866;2023-06-19T02:33:43;8.52;;;7.72;;
26181;SDS011;13927;51.534;11.866;2023-06-19T02:36:13;8.60;;;7.80;;
26181;SDS011;13927;51.534;11.866;2023-06-19T02:38:49;8.63;;;7.53;;
26181;SDS011;13927;51.534;11.866;2023-06-19T02:41:16;8.68;;;7.88;;
26181;SDS011;13927;51.534;11.866;2023-06-19T02:43:44;8.40;;;7.60;;
26181;SDS011;13927;51.534;11.866;2023-06-19T02:46:12;13.25;;;9.93;;
26181;SDS011;13927;51.534;11.866;2023-06-19T02:48:39;11.10;;;10.10;;
26181;SDS011;13927;51.534;11.866;2023-06-19T02:51:05;10.95;;;9.88;;
26181;SDS011;13927;51.534;11.866;2023-06-19T02:53:37;11.85;;;9.25;;
26181;SDS011;13927;51.534;11.866;2023-06-19T02:56:04;9.75;;;8.77;;
26181;SDS011;13927;51.534;11.866;2023-06-19T02:58:33;8.70;;;7.85;;
26181;SDS011;13927;51.534;11.866;2023-06-19T03:01:03;10.23;;;9.23;;
26181;SDS011;13927;51.534;11.866;2023-06-19T03:03:34;10.70;;;9.60;;
26181;SDS011;13927;51.534;11.866;2023-06-19T03:06:06;11.82;;;10.70;;
26181;SDS011;13927;51.534;11.866;2023-06-19T03:08:38;12.30;;;10.18;;
26181;SDS011;13927;51.534;11.866;2023-06-19T03:11:05;12.07;;;10.88;;
26181;SDS011;13927;51.534;11.866;2023-06-19T03:13:43;11.40;;;10.18;;
26181;SDS011;13927;51.534;11.866;2023-06-19T03:16:17;10.40;;;8.80;;
26181;SDS011;13927;51.534;11.866;2023-06-19T03:21:16;10.90;;;9.95;;
26181;SDS011;13927;51.534;11.866;2023-06-19T03:23:44;11.13;;;9.82;;
26181;SDS011;13927;51.534;11.866;2023-06-19T03:26:12;11.38;;;10.27;;
26181;SDS011;13927;51.534;11.866;2023-06-19T03:28:39;9.73;;;8.82;;
26181;SDS011;13927;51.534;11.866;2023-06-19T03:31:09;10.02;;;9.10;;
26181;SDS011;13927;51.534;11.866;2023-06-19T03:33:36;11.32;;;10.23;;
26181;SDS011;13927;51.534;11.866;2023-06-19T03:36:06;10.80;;;9.77;;
26181;SDS011;13927;51.534;11.866;2023-06-19T03:38:38;11.32;;;10.23;;
26181;SDS011;13927;51.534;11.866;2023-06-19T03:41:06;10.27;;;9.25;;
26181;SDS011;13927;51.534;11.866;2023-06-19T03:43:33;10.82;;;9.70;;
26181;SDS011;13927;51.534;11.866;2023-06-19T03:46:01;10.32;;;9.32;;
26181;SDS011;13927;51.534;11.866;2023-06-19T03:48:30;10.60;;;9.50;;
26181;SDS011;13927;51.534;11.866;2023-06-19T03:50:59;10.30;;;9.30;;
26181;SDS011;13927;51.534;11.866;2023-06-19T03:53:29;11.07;;;10.07;;
26181;SDS011;13927;51.534;11.866;2023-06-19T03:55:56;11.23;;;10.13;;
26181;SDS011;13927;51.534;11.866;2023-06-19T03:58:25;10.75;;;9.77;;
26181;SDS011;13927;51.534;11.866;2023-06-19T04:00:53;10.50;;;9.50;;
26181;SDS011;13927;51.534;11.866;2023-06-19T04:03:20;10.18;;;9.23;;
26181;SDS011;13927;51.534;11.866;2023-06-19T04:05:49;12.25;;;11.05;;
26181;SDS011;13927;51.534;11.866;2023-06-19T04:08:18;11.20;;;10.02;;
26181;SDS011;13927;51.534;11.866;2023-06-19T04:10:47;12.00;;;9.85;;
26181;SDS011;13927;51.534;11.866;2023-06-19T04:13:15;11.10;;;10.00;;
26181;SDS011;13927;51.534;11.866;2023-06-19T04:15:46;10.25;;;9.15;;
26181;SDS011;13927;51.534;11.866;2023-06-19T04:18:16;11.23;;;9.77;;
26181;SDS011;13927;51.534;11.866;2023-06-19T04:20:44;12.10;;;10.38;;
26181;SDS011;13927;51.534;11.866;2023-06-19T04:23:15;10.70;;;9.60;;
26181;SDS011;13927;51.534;11.866;2023-06-19T04:25:41;11.25;;;10.13;;
26181;SDS011;13927;51.534;11.866;2023-06-19T04:28:16;11.82;;;9.90;;
26181;SDS011;13927;51.534;11.866;2023-06-19T04:30:50;11.18;;;10.07;;
26181;SDS011;13927;51.534;11.866;2023-06-19T04:33:26;12.70;;;11.63;;
26181;SDS011;13927;51.534;11.866;2023-06-19T04:35:58;11.65;;;9.63;;
26181;SDS011;13927;51.534;11.866;2023-06-19T04:38:35;10.70;;;9.55;;
26181;SDS011;13927;51.534;11.866;2023-06-19T04:41:02;10.35;;;9.25;;
26181;SDS011;13927;51.534;11.866;2023-06-19T04:43:29;11.02;;;9.93;;
26181;SDS011;13927;51.534;11.866;2023-06-19T04:46:01;11.63;;;9.45;;
26181;SDS011;13927;51.534;11.866;2023-06-19T04:48:31;11.23;;;10.23;;
26181;SDS011;13927;51.534;11.866;2023-06-19T04:51:11;12.10;;;9.13;;
26181;SDS011;13927;51.534;11.866;2023-06-19T04:53:38;10.32;;;9.30;;
26181;SDS011;13927;51.534;11.866;2023-06-19T04:56:11;10.13;;;9.13;;
26181;SDS011;13927;51.534;11.866;2023-06-19T04:58:45;10.50;;;9.50;;
26181;SDS011;13927;51.534;11.866;2023-06-19T05:01:16;10.55;;;9.55;;
26181;SDS011;13927;51.534;11.866;2023-06-19T05:03:58;12.07;;;9.95;;
26181;SDS011;13927;51.534;11.866;2023-06-19T05:06:31;12.57;;;10.07;;
26181;SDS011;13927;51.534;11.866;2023-06-19T05:08:59;9.85;;;8.88;;
26181;SDS011;13927;51.534;11.866;2023-06-19T05:11:27;10.48;;;9.43;;
26181;SDS011;13927;51.534;11.866;2023-06-19T05:13:55;10.07;;;9.07;;
26181;SDS011;13927;51.534;11.866;2023-06-19T05:16:25;10.48;;;9.43;;
26181;SDS011;13927;51.534;11.866;2023-06-19T05:18:53;12.82;;;9.98;;
26181;SDS011;13927;51.534;11.866;2023-06-19T05:21:21;11.30;;;9.23;;
26181;SDS011;13927;51.534;11.866;2023-06-19T05:23:47;10.32;;;9.23;;
26181;SDS011;13927;51.534;11.866;2023-06-19T05:26:17;10.30;;;9.30;;
26181;SDS011;13927;51.534;11.866;2023-06-19T05:28:50;9.95;;;8.95;;
26181;SDS011;13927;51.534;11.866;2023-06-19T05:31:17;10.18;;;9.18;;
26181;SDS011;13927;51.534;11.866;2023-06-19T05:33:47;9.90;;;9.00;;
26181;SDS011;13927;51.534;11.866;2023-06-19T05:36:26;10.48;;;9.48;;
26181;SDS011;13927;51.534;11.866;2023-06-19T05:38:54;12.40;;;10.18;;
26181;SDS011;13927;51.534;11.866;2023-06-19T05:41:30;13.27;;;11.57;;
26181;SDS011;13927;51.534;11.866;2023-06-19T05:43:57;12.20;;;11.10;;
26181;SDS011;13927;51.534;11.866;2023-06-19T05:46:27;12.35;;;10.90;;
26181;SDS011;13927;51.534;11.866;2023-06-19T05:48:58;11.70;;;10.57;;
26181;SDS011;13927;51.534;11.866;2023-06-19T05:51:27;10.95;;;9.85;;
26181;SDS011;13927;51.534;11.866;2023-06-19T05:54:05;12.07;;;10.80;;
26181;SDS011;13927;51.534;11.866;2023-06-19T05:56:42;12.25;;;10.52;;
26181;SDS011;13927;51.534;11.866;2023-06-19T05:59:14;12.75;;;11.23;;
26181;SDS011;13927;51.534;11.866;2023-06-19T06:01:42;13.43;;;11.73;;
26181;SDS011;13927;51.534;11.866;2023-06-19T06:04:08;15.35;;;12.45;;
26181;SDS011;13927;51.534;11.866;2023-06-19T06:06:33;14.05;;;11.57;;
26181;SDS011;13927;51.534;11.866;2023-06-19T06:09:00;13.98;;;12.57;;
26181;SDS011;13927;51.534;11.866;2023-06-19T06:11:25;14.10;;;12.45;;
26181;SDS011;13927;51.534;11.866;2023-06-19T06:13:51;12.93;;;11.73;;
26181;SDS011;13927;51.534;11.866;2023-06-19T06:16:17;14.40;;;11.90;;
26181;SDS011;13927;51.534;11.866;2023-06-19T06:18:44;12.85;;;11.45;;
26181;SDS011;13927;51.534;11.866;2023-06-19T06:21:10;14.82;;;13.32;;
26181;SDS011;13927;51.534;11.866;2023-06-19T06:23:37;14.48;;;12.73;;
26181;SDS011;13927;51.534;11.866;2023-06-19T06:26:05;14.90;;;12.05;;
26181;SDS011;13927;51.534;11.866;2023-06-19T06:28:31;12.90;;;11.70;;
26181;SDS011;13927;51.534;11.866;2023-06-19T06:30:57;15.00;;;11.82;;
26181;SDS011;13927;51.534;11.866;2023-06-19T06:33:23;16.95;;;11.70;;
26181;SDS011;13927;51.534;11.866;2023-06-19T06:35:49;14.20;;;11.80;;
26181;SDS011;13927;51.534;11.866;2023-06-19T06:38:16;15.02;;;13.38;;
26181;SDS011;13927;51.534;11.866;2023-06-19T06:40:42;14.20;;;12.80;;
26181;SDS011;13927;51.534;11.866;2023-06-19T06:43:08;14.13;;;12.30;;
26181;SDS011;13927;51.534;11.866;2023-06-19T06:45:34;17.88;;;15.18;;
26181;SDS011;13927;51.534;11.866;2023-06-19T06:48:02;14.77;;;12.90;;
26181;SDS011;13927;51.534;11.866;2023-06-19T06:50:30;15.38;;;13.90;;
26181;SDS011;13927;51.534;11.866;2023-06-19T06:52:57;15.70;;;12.95;;
26181;SDS011;13927;51.534;11.866;2023-06-19T06:55:23;15.70;;;13.07;;
26181;SDS011;13927;51.534;11.866;2023-06-19T06:57:49;14.63;;;13.10;;
26181;SDS011;13927;51.534;11.866;2023-06-19T07:00:15;14.95;;;13.45;;
26181;SDS011;13927;51.534;11.866;2023-06-19T07:02:43;16.70;;;14.15;;
26181;SDS011;13927;51.534;11.866;2023-06-19T07:05:09;14.95;;;13.30;;
26181;SDS011;13927;51.534;11.866;2023-06-19T07:07:36;15.63;;;13.30;;
26181;SDS011;13927;51.534;11.866;2023-06-19T07:10:02;15.52;;;14.02;;
26181;SDS011;13927;51.534;11.866;2023-06-19T07:12:28;15.45;;;12.52;;
26181;SDS011;13927;51.534;11.866;2023-06-19T07:14:54;14.98;;;13.30;;
26181;SDS011;13927;51.534;11.866;2023-06-19T07:17:20;15.98;;;13.15;;
26181;SDS011;13927;51.534;11.866;2023-06-19T07:19:47;14.05;;;12.70;;
26181;SDS011;13927;51.534;11.866;2023-06-19T07:22:13;17.67;;;13.15;;
26181;SDS011;13927;51.534;11.866;2023-06-19T07:24:42;13.60;;;11.93;;
26181;SDS011;13927;51.534;11.866;2023-06-19T07:27:08;13.45;;;11.82;;
26181;SDS011;13927;51.534;11.866;2023-06-19T07:29:34;14.35;;;12.88;;
26181;SDS011;13927;51.534;11.866;2023-06-19T07:31:59;14.07;;;12.68;;
26181;SDS011;13927;51.534;11.866;2023-06-19T07:34:27;14.02;;;12.70;;
26181;SDS011;13927;51.534;11.866;2023-06-19T07:36:53;15.07;;;12.63;;
26181;SDS011;13927;51.534;11.866;2023-06-19T07:39:19;14.38;;;11.45;;
26181;SDS011;13927;51.534;11.866;2023-06-19T07:41:44;13.73;;;12.40;;
26181;SDS011;13927;51.534;11.866;2023-06-19T07:44:11;12.02;;;10.85;;
26181;SDS011;13927;51.534;11.866;2023-06-19T07:46:37;12.02;;;10.88;;
26181;SDS011;13927;51.534;11.866;2023-06-19T07:49:04;14.60;;;11.73;;
26181;SDS011;13927;51.534;11.866;2023-06-19T07:51:30;13.40;;;11.38;;
26181;SDS011;13927;51.534;11.866;2023-06-19T07:53:56;16.08;;;11.98;;
26181;SDS011;13927;51.534;11.866;2023-06-19T07:56:22;13.32;;;10.98;;
26181;SDS011;13927;51.534;11.866;2023-06-19T07:58:48;14.10;;;11.48;;
26181;SDS011;13927;51.534;11.866;2023-06-19T08:01:14;13.40;;;11.90;;
26181;SDS011;13927;51.534;11.866;2023-06-19T08:03:41;12.75;;;11.50;;
26181;SDS011;13927;51.534;11.866;2023-06-19T08:06:07;13.85;;;12.23;;
26181;SDS011;13927;51.534;11.866;2023-06-19T08:08:33;13.10;;;11.70;;
26181;SDS011;13927;51.534;11.866;2023-06-19T08:10:59;12.48;;;11.27;;
26181;SDS011;13927;51.534;11.866;2023-06-19T08:13:25;13.23;;;11.73;;
26181;SDS011;13927;51.534;11.866;2023-06-19T08:15:51;14.10;;;11.65;;
26181;SDS011;13927;51.534;11.866;2023-06-19T08:18:17;15.75;;;11.88;;
26181;SDS011;13927;51.534;11.866;2023-06-19T08:20:43;12.80;;;11.38;;
26181;SDS011;13927;51.534;11.866;2023-06-19T08:23:09;12.70;;;10.80;;
26181;SDS011;13927;51.534;11.866;2023-06-19T08:25:35;13.07;;;11.57;;
26181;SDS011;13927;51.534;11.866;2023-06-19T08:28:01;13.20;;;11.00;;
26181;SDS011;13927;51.534;11.866;2023-06-19T08:30:28;13.27;;;11.70;;
26181;SDS011;13927;51.534;11.866;2023-06-19T08:32:54;13.05;;;11.82;;
26181;SDS011;13927;51.534;11.866;2023-06-19T08:35:20;13.50;;;12.10;;
26181;SDS011;13927;51.534;11.866;2023-06-19T08:37:46;12.30;;;11.10;;
26181;SDS011;13927;51.534;11.866;2023-06-19T08:40:12;12.32;;;11.07;;
26181;SDS011;13927;51.534;11.866;2023-06-19T08:42:38;11.15;;;10.05;;
26181;SDS011;13927;51.534;11.866;2023-06-19T08:45:05;12.23;;;11.00;;
26181;SDS011;13927;51.534;11.866;2023-06-19T08:47:34;13.90;;;10.43;;
26181;SDS011;13927;51.534;11.866;2023-06-19T08:50:01;12.23;;;10.82;;
26181;SDS011;13927;51.534;11.866;2023-06-19T08:52:28;12.02;;;10.88;;
26181;SDS011;13927;51.534;11.866;2023-06-19T08:54:55;12.15;;;10.38;;
26181;SDS011;13927;51.534;11.866;2023-06-19T08:57:21;11.50;;;10.40;;
26181;SDS011;13927;51.534;11.866;2023-06-19T09:00:00;14.18;;;10.70;;
26181;SDS011;13927;51.534;11.866;2023-06-19T09:02:41;12.40;;;11.13;;
26181;SDS011;13927;51.534;11.866;2023-06-19T09:05:14;11.35;;;10.35;;
26181;SDS011;13927;51.534;11.866;2023-06-19T09:07:43;10.35;;;9.23;;
26181;SDS011;13927;51.534;11.866;2023-06-19T09:10:19;12.93;;;10.70;;
26181;SDS011;13927;51.534;11.866;2023-06-19T09:12:58;11.82;;;10.60;;
26181;SDS011;13927;51.534;11.866;2023-06-19T09:15:28;11.13;;;9.75;;
26181;SDS011;13927;51.534;11.866;2023-06-19T09:18:05;10.40;;;9.38;;
26181;SDS011;13927;51.534;11.866;2023-06-19T09:20:34;10.55;;;9.52;;
26181;SDS011;13927;51.534;11.866;2023-06-19T09:23:09;10.80;;;9.70;;
26181;SDS011;13927;51.534;11.866;2023-06-19T09:25:46;12.10;;;9.55;;
26181;SDS011;13927;51.534;11.866;2023-06-19T09:28:21;10.60;;;9.60;;
26181;SDS011;13927;51.534;11.866;2023-06-19T09:30:57;10.50;;;9.50;;
26181;SDS011;13927;51.534;11.866;2023-06-19T09:33:31;9.77;;;8.98;;
26181;SDS011;13927;51.534;11.866;2023-06-19T09:36:00;9.67;;;8.77;;
26181;SDS011;13927;51.534;11.866;2023-06-19T09:38:29;9.20;;;8.40;;
26181;SDS011;13927;51.534;11.866;2023-06-19T09:41:00;10.90;;;9.80;;
26181;SDS011;13927;51.534;11.866;2023-06-19T09:43:38;10.32;;;9.32;;
26181;SDS011;13927;51.534;11.866;2023-06-19T09:46:09;10.30;;;9.48;;
26181;SDS011;13927;51.534;11.866;2023-06-19T09:48:41;10.48;;;9.18;;
26181;SDS011;13927;51.534;11.866;2023-06-19T09:53:46;11.63;;;9.63;;
26181;SDS011;13927;51.534;11.866;2023-06-19T09:56:13;10.38;;;9.38;;
26181;SDS011;13927;51.534;11.866;2023-06-19T09:58:44;10.25;;;8.95;;
26181;SDS011;13927;51.534;11.866;2023-06-19T10:01:11;9.73;;;8.77;;
26181;SDS011;13927;51.534;11.866;2023-06-19T10:03:38;8.95;;;8.05;;
26181;SDS011;13927;51.534;11.866;2023-06-19T10:06:06;11.32;;;9.57;;
26181;SDS011;13927;51.534;11.866;2023-06-19T10:08:38;9.25;;;8.35;;
26181;SDS011;13927;51.534;11.866;2023-06-19T10:11:06;10.27;;;8.63;;
26181;SDS011;13927;51.534;11.866;2023-06-19T10:13:36;9.32;;;8.43;;
26181;SDS011;13927;51.534;11.866;2023-06-19T10:16:06;10.77;;;9.68;;
26181;SDS011;13927;51.534;11.866;2023-06-19T10:18:44;10.65;;;9.65;;
26181;SDS011;13927;51.534;11.866;2023-06-19T10:21:16;10.18;;;9.27;;
26181;SDS011;13927;51.534;11.866;2023-06-19T10:23:53;9.77;;;8.80;;
26181;SDS011;13927;51.534;11.866;2023-06-19T10:26:29;9.75;;;8.85;;
26181;SDS011;13927;51.534;11.866;2023-06-19T10:29:13;9.82;;;8.65;;
26181;SDS011;13927;51.534;11.866;2023-06-19T10:31:42;9.55;;;8.75;;
26181;SDS011;13927;51.534;11.866;2023-06-19T10:34:10;9.85;;;8.90;;
26181;SDS011;13927;51.534;11.866;2023-06-19T10:36:37;9.63;;;8.75;;
26181;SDS011;13927;51.534;11.866;2023-06-19T10:39:03;9.38;;;8.38;;
26181;SDS011;13927;51.534;11.866;2023-06-19T10:41:29;9.57;;;8.25;;
26181;SDS011;13927;51.534;11.866;2023-06-19T10:44:06;9.57;;;8.57;;
26181;SDS011;13927;51.534;11.866;2023-06-19T10:46:39;10.32;;;9.32;;
26181;SDS011;13927;51.534;11.866;2023-06-19T10:49:06;10.02;;;8.70;;
26181;SDS011;13927;51.534;11.866;2023-06-19T10:51:39;10.55;;;9.20;;
26181;SDS011;13927;51.534;11.866;2023-06-19T10:54:10;9.75;;;8.85;;
26181;SDS011;13927;51.534;11.866;2023-06-19T10:56:37;9.48;;;8.63;;
26181;SDS011;13927;51.534;11.866;2023-06-19T10:59:08;9.40;;;8.57;;
26181;SDS011;13927;51.534;11.866;2023-06-19T11:01:40;12.38;;;8.75;;
26181;SDS011;13927;51.534;11.866;2023-06-19T11:04:12;10.85;;;8.93;;
26181;SDS011;13927;51.534;11.866;2023-06-19T11:06:40;10.23;;;9.27;;
26181;SDS011;13927;51.534;11.866;2023-06-19T11:09:09;9.38;;;8.57;;
26181;SDS011;13927;51.534;11.866;2023-06-19T11:11:37;10.07;;;9.18;;
26181;SDS011;13927;51.534;11.866;2023-06-19T11:14:11;10.77;;;9.55;;
26181;SDS011;13927;51.534;11.866;2023-06-19T11:16:41;9.95;;;8.95;;
26181;SDS011;13927;51.534;11.866;2023-06-19T11:19:14;9.25;;;8.38;;
26181;SDS011;13927;51.534;11.866;2023-06-19T11:21:45;9.68;;;8.77;;
26181;SDS011;13927;51.534;11.866;2023-06-19T11:24:15;9.02;;;8.15;;
26181;SDS011;13927;51.534;11.866;2023-06-19T11:26:43;9.93;;;9.02;;
26181;SDS011;13927;51.534;11.866;2023-06-19T11:29:18;9.35;;;8.57;;
26181;SDS011;13927;51.534;11.866;2023-06-19T11:31:51;9.73;;;8.73;;
26181;SDS011;13927;51.534;11.866;2023-06-19T11:34:33;11.00;;;9.27;;
26181;SDS011;13927;51.534;11.866;2023-06-19T11:37:16;11.18;;;8.43;;
26181;SDS011;13927;51.534;11.866;2023-06-19T11:39:44;9.80;;;8.98;;
26181;SDS011;13927;51.534;11.866;2023-06-19T11:42:11;11.85;;;8.45;;
26181;SDS011;13927;51.534;11.866;2023-06-19T11:47:32;10.00;;;9.02;;
26181;SDS011;13927;51.534;11.866;2023-06-19T11:49:59;8.95;;;8.05;;
26181;SDS011;13927;51.534;11.866;2023-06-19T11:52:25;9.43;;;8.63;;
26181;SDS011;13927;51.534;11.866;2023-06-19T11:54:51;10.05;;;9.13;;
26181;SDS011;13927;51.534;11.866;2023-06-19T11:57:17;13.50;;;8.95;;
26181;SDS011;13927;51.534;11.866;2023-06-19T11:59:43;9.45;;;8.55;;
26181;SDS011;13927;51.534;11.866;2023-06-19T12:02:09;9.55;;;8.65;;
26181;SDS011;13927;51.534;11.866;2023-06-19T12:04:36;9.93;;;8.95;;
26181;SDS011;13927;51.534;11.866;2023-06-19T12:07:02;9.57;;;8.63;;
26181;SDS011;13927;51.534;11.866;2023-06-19T12:09:29;10.23;;;9.23;;
26181;SDS011;13927;51.534;11.866;2023-06-19T12:11:57;10.20;;;9.15;;
26181;SDS011;13927;51.534;11.866;2023-06-19T12:14:23;9.85;;;8.85;;
26181;SDS011;13927;51.534;11.866;2023-06-19T12:16:49;10.93;;;9.93;;
26181;SDS011;13927;51.534;11.866;2023-06-19T12:19:16;9.45;;;8.55;;
26181;SDS011;13927;51.534;11.866;2023-06-19T12:21:43;9.75;;;8.85;;
26181;SDS011;13927;51.534;11.866;2023-06-19T12:24:09;9.90;;;8.82;;
26181;SDS011;13927;51.534;11.866;2023-06-19T12:26:35;9.85;;;8.77;;
26181;SDS011;13927;51.534;11.866;2023-06-19T12:29:02;10.25;;;8.95;;
26181;SDS011;13927;51.534;11.866;2023-06-19T12:31:29;9.40;;;8.50;;
26181;SDS011;13927;51.534;11.866;2023-06-19T12:33:57;9.70;;;8.75;;
26181;SDS011;13927;51.534;11.866;2023-06-19T12:36:23;10.40;;;9.40;;
26181;SDS011;13927;51.534;11.866;2023-06-19T12:38:52;9.05;;;8.25;;
26181;SDS011;13927;51.534;11.866;2023-06-19T12:41:19;9.48;;;8.60;;
26181;SDS011;13927;51.534;11.866;2023-06-19T12:43:46;9.85;;;8.45;;
26181;SDS011;13927;51.534;11.866;2023-06-19T12:46:12;9.32;;;8.10;;
26181;SDS011;13927;51.534;11.866;2023-06-19T12:48:38;8.20;;;7.40;;
26181;SDS011;13927;51.534;11.866;2023-06-19T12:51:04;8.48;;;7.57;;
26181;SDS011;13927;51.534;11.866;2023-06-19T12:53:31;7.70;;;6.85;;
26181;SDS011;13927;51.534;11.866;2023-06-19T12:55:57;7.88;;;7.07;;
26181;SDS011;13927;51.534;11.866;2023-06-19T12:58:25;8.82;;;7.13;;
26181;SDS011;13927;51.534;11.866;2023-06-19T13:00:52;11.10;;;7.70;;
26181;SDS011;13927;51.534;11.866;2023-06-19T13:03:19;9.10;;;6.85;;
26181;SDS011;13927;51.534;11.866;2023-06-19T13:05:46;8.25;;;7.50;;
26181;SDS011;13927;51.534;11.866;2023-06-19T13:08:12;8.50;;;7.70;;
26181;SDS011;13927;51.534;11.866;2023-06-19T13:10:38;8.38;;;7.40;;
26181;SDS011;13927;51.534;11.866;2023-06-19T13:13:05;8.48;;;7.63;;
26181;SDS011;13927;51.534;11.866;2023-06-19T13:15:32;8.50;;;6.68;;
26181;SDS011;13927;51.534;11.866;2023-06-19T13:18:01;7.95;;;6.93;;
26181;SDS011;13927;51.534;11.866;2023-06-19T13:20:27;8.80;;;6.47;;
26181;SDS011;13927;51.534;11.866;2023-06-19T13:22:53;7.30;;;6.43;;
26181;SDS011;13927;51.534;11.866;2023-06-19T13:25:20;10.07;;;6.13;;
26181;SDS011;13927;51.534;11.866;2023-06-19T13:27:46;9.35;;;6.07;;
26181;SDS011;13927;51.534;11.866;2023-06-19T13:30:12;7.72;;;6.40;;
26181;SDS011;13927;51.534;11.866;2023-06-19T13:32:38;6.90;;;5.80;;
26181;SDS011;13927;51.534;11.866;2023-06-19T13:35:05;7.97;;;6.05;;
26181;SDS011;13927;51.534;11.866;2023-06-19T13:37:33;8.13;;;5.88;;
26181;SDS011;13927;51.534;11.866;2023-06-19T13:40:00;12.45;;;6.85;;
26181;SDS011;13927;51.534;11.866;2023-06-19T13:42:29;10.25;;;6.55;;
26181;SDS011;13927;51.534;11.866;2023-06-19T13:44:56;8.70;;;6.65;;
26181;SDS011;13927;51.534;11.866;2023-06-19T13:47:23;7.03;;;6.40;;
26181;SDS011;13927;51.534;11.866;2023-06-19T13:49:52;6.80;;;6.03;;
26181;SDS011;13927;51.534;11.866;2023-06-19T13:52:19;6.47;;;5.95;;
26181;SDS011;13927;51.534;11.866;2023-06-19T13:54:45;6.53;;;5.90;;
26181;SDS011;13927;51.534;11.866;2023-06-19T13:57:12;6.88;;;6.28;;
26181;SDS011;13927;51.534;11.866;2023-06-19T13:59:38;6.93;;;6.32;;
26181;SDS011;13927;51.534;11.866;2023-06-19T14:02:04;6.50;;;5.90;;
26181;SDS011;13927;51.534;11.866;2023-06-19T14:04:31;8.35;;;5.97;;
26181;SDS011;13927;51.534;11.866;2023-06-19T14:06:57;7.07;;;6.35;;
26181;SDS011;13927;51.534;11.866;2023-06-19T14:09:23;7.90;;;7.10;;
26181;SDS011;13927;51.534;11.866;2023-06-19T14:11:49;8.02;;;7.22;;
26181;SDS011;13927;51.534;11.866;2023-06-19T14:14:17;9.38;;;7.00;;
26181;SDS011;13927;51.534;11.866;2023-06-19T14:16:54;7.22;;;6.60;;
26181;SDS011;13927;51.534;11.866;2023-06-19T14:19:24;7.60;;;6.93;;
26181;SDS011;13927;51.534;11.866;2023-06-19T14:21:55;8.13;;;7.43;;
26181;SDS011;13927;51.534;11.866;2023-06-19T14:24:24;9.02;;;7.28;;
26181;SDS011;13927;51.534;11.866;2023-06-19T14:26:55;7.07;;;6.47;;
26181;SDS011;13927;51.534;11.866;2023-06-19T14:29:30;7.72;;;6.93;;
26181;SDS011;13927;51.534;11.866;2023-06-19T14:31:56;7.78;;;6.90;;
26181;SDS011;13927;51.534;11.866;2023-06-19T14:34:22;8.43;;;7.63;;
26181;SDS011;13927;51.534;11.866;2023-06-19T14:36:48;9.15;;;7.25;;
26181;SDS011;13927;51.534;11.866;2023-06-19T14:39:14;7.65;;;6.95;;
26181;SDS011;13927;51.534;11.866;2023-06-19T14:41:41;8.40;;;7.13;;
26181;SDS011;13927;51.534;11.866;2023-06-19T14:44:07;8.15;;;7.00;;